createdAt,value
2022-12-05T00:02:23.497Z,69.77
2022-12-05T00:04:50.114Z,73.90
2022-12-05T00:07:16.539Z,69.43
2022-12-05T00:09:43.128Z,74.87
2022-12-05T00:12:09.538Z,60.43
2022-12-05T00:14:36.054Z,64.97
2022-12-05T00:17:02.708Z,55.70
2022-12-05T00:19:29.766Z,65.70
2022-12-05T00:21:57.862Z,67.07
2022-12-05T00:24:24.423Z,69.67
2022-12-05T00:26:50.934Z,69.53
2022-12-05T00:29:17.400Z,68.57
2022-12-05T00:31:44.054Z,64.83
2022-12-05T00:34:10.668Z,59.80
2022-12-05T00:36:37.164Z,56.33
2022-12-05T00:39:07.741Z,55.90
2022-12-05T00:41:34.345Z,44.67
2022-12-05T00:44:01.055Z,47.30
2022-12-05T00:46:28.144Z,48.30
2022-12-05T00:48:54.976Z,48.07
2022-12-05T00:51:23.100Z,47.03
2022-12-05T00:53:49.618Z,52.03
2022-12-05T00:56:16.969Z,48.60
2022-12-05T00:58:43.584Z,49.23
2022-12-05T01:01:20.225Z,46.43
2022-12-05T01:03:46.918Z,45.00
2022-12-05T01:06:13.598Z,44.30
2022-12-05T01:08:40.103Z,44.87
2022-12-05T01:11:06.705Z,39.47
2022-12-05T01:13:33.330Z,47.13
2022-12-05T01:15:59.802Z,39.30
2022-12-05T01:18:26.346Z,44.90
2022-12-05T01:20:52.772Z,45.27
2022-12-05T01:23:19.378Z,45.23
2022-12-05T01:25:46.646Z,45.07
2022-12-05T01:28:13.469Z,43.53
2022-12-05T01:30:40.509Z,46.87
2022-12-05T01:33:07.197Z,46.90
2022-12-05T01:35:34.072Z,41.27
2022-12-05T01:38:00.622Z,36.47
2022-12-05T01:40:27.204Z,42.67
2022-12-05T01:42:53.913Z,44.67
2022-12-05T01:45:30.024Z,41.87
2022-12-05T01:47:56.594Z,44.43
2022-12-05T01:50:23.135Z,39.90
2022-12-05T01:52:49.569Z,39.90
2022-12-05T01:55:16.566Z,41.50
2022-12-05T01:57:43.108Z,41.87
2022-12-05T02:00:14.366Z,47.40
2022-12-05T02:02:41.837Z,40.23
2022-12-05T02:05:09.659Z,48.00
2022-12-05T02:07:36.719Z,42.00
2022-12-05T02:10:03.550Z,43.77
2022-12-05T02:12:30.045Z,44.90
2022-12-05T02:15:04.177Z,40.77
2022-12-05T02:17:41.371Z,41.33
2022-12-05T02:20:10.177Z,40.53
2022-12-05T02:22:39.767Z,45.10
2022-12-05T02:25:18.883Z,46.03
2022-12-05T02:27:51.460Z,49.43
2022-12-05T02:30:26.726Z,42.07
2022-12-05T02:32:56.167Z,52.20
2022-12-05T02:35:25.695Z,43.83
2022-12-05T02:38:04.601Z,44.97
2022-12-05T02:40:34.124Z,43.47
2022-12-05T02:43:20.872Z,44.03
2022-12-05T02:45:48.311Z,35.47
2022-12-05T02:48:14.842Z,45.43
2022-12-05T02:50:41.353Z,46.80
2022-12-05T02:53:09.010Z,45.43
2022-12-05T02:55:35.544Z,42.13
2022-12-05T02:58:03.558Z,39.40
2022-12-05T03:00:30.027Z,42.97
2022-12-05T03:02:56.858Z,41.57
2022-12-05T03:05:33.659Z,41.43
2022-12-05T03:08:00.343Z,41.27
2022-12-05T03:10:27.208Z,39.13
2022-12-05T03:12:55.156Z,40.00
2022-12-05T03:15:23.022Z,42.53
2022-12-05T03:17:53.506Z,42.03
2022-12-05T03:20:29.721Z,39.67
2022-12-05T03:23:00.673Z,38.20
2022-12-05T03:25:30.363Z,41.33
2022-12-05T03:28:02.786Z,37.73
2022-12-05T03:30:29.242Z,42.67
2022-12-05T03:32:55.703Z,37.97
2022-12-05T03:35:25.432Z,37.50
2022-12-05T03:37:52.073Z,43.93
2022-12-05T03:40:24.692Z,42.33
2022-12-05T03:42:53.991Z,40.63
2022-12-05T03:45:21.622Z,50.30
2022-12-05T03:47:53.107Z,47.30
2022-12-05T03:50:23.698Z,44.03
2022-12-05T03:53:18.547Z,45.53
2022-12-05T03:55:39.481Z,48.40
2022-12-05T03:58:07.365Z,49.50
2022-12-05T04:00:34.778Z,49.60
2022-12-05T04:03:05.931Z,46.80
2022-12-05T04:05:33.155Z,47.93
2022-12-05T04:08:12.268Z,47.50
2022-12-05T04:10:48.705Z,51.03
2022-12-05T04:13:20.156Z,46.30
2022-12-05T04:16:08.008Z,45.73
2022-12-05T04:18:37.809Z,45.63
2022-12-05T04:21:23.029Z,45.40
2022-12-05T04:24:09.474Z,41.10
2022-12-05T04:26:35.909Z,41.13
2022-12-05T04:29:05.380Z,42.33
2022-12-05T04:31:36.445Z,40.40
2022-12-05T04:34:05.345Z,37.40
2022-12-05T04:36:32.754Z,39.40
2022-12-05T04:39:03.301Z,38.73
2022-12-05T04:41:34.333Z,39.43
2022-12-05T04:44:01.780Z,41.53
2022-12-05T04:46:28.285Z,38.57
2022-12-05T04:48:58.994Z,40.57
2022-12-05T04:51:25.774Z,41.67
2022-12-05T04:53:54.238Z,44.37
2022-12-05T04:56:20.754Z,42.83
2022-12-05T04:58:47.311Z,40.43
2022-12-05T05:01:21.384Z,42.57
2022-12-05T05:03:47.870Z,42.23
2022-12-05T05:06:14.325Z,47.10
2022-12-05T05:08:48.277Z,41.73
2022-12-05T05:11:15.122Z,45.93
2022-12-05T05:13:41.674Z,46.53
2022-12-05T05:16:08.237Z,52.03
2022-12-05T05:18:34.895Z,44.57
2022-12-05T05:21:01.380Z,45.50
2022-12-05T05:23:27.850Z,41.63
2022-12-05T05:25:54.879Z,43.13
2022-12-05T05:28:21.521Z,46.53
2022-12-05T05:30:48.075Z,38.67
2022-12-05T05:33:15.267Z,44.20
2022-12-05T05:35:41.726Z,40.60
2022-12-05T05:38:08.471Z,46.17
2022-12-05T05:40:35.531Z,42.27
2022-12-05T05:43:01.994Z,43.67
2022-12-05T05:45:28.415Z,43.50
2022-12-05T05:47:54.931Z,41.50
2022-12-05T05:50:22.121Z,48.40
2022-12-05T05:52:48.735Z,44.80
2022-12-05T05:55:15.228Z,45.40
2022-12-05T05:57:41.685Z,46.67
2022-12-05T06:00:08.570Z,44.47
2022-12-05T06:02:35.231Z,45.63
2022-12-05T06:05:01.841Z,46.30
2022-12-05T06:07:28.348Z,45.87
2022-12-05T06:09:55.004Z,45.30
2022-12-05T06:12:21.656Z,49.47
2022-12-05T06:14:51.586Z,41.93
2022-12-05T06:17:18.140Z,46.50
2022-12-05T06:19:44.713Z,51.63
2022-12-05T06:22:11.240Z,48.27
2022-12-05T06:24:37.780Z,44.30
2022-12-05T06:27:04.417Z,44.27
2022-12-05T06:29:33.802Z,50.07
2022-12-05T06:32:00.963Z,47.40
2022-12-05T06:34:27.532Z,46.37
2022-12-05T06:36:54.009Z,46.80
2022-12-05T06:39:20.560Z,40.63
2022-12-05T06:41:47.034Z,49.53
2022-12-05T06:44:14.060Z,49.50
2022-12-05T06:46:40.603Z,46.70
2022-12-05T06:49:07.089Z,48.87
2022-12-05T06:51:33.600Z,48.37
2022-12-05T06:54:00.096Z,53.47
2022-12-05T06:56:26.609Z,48.37
2022-12-05T06:58:53.624Z,51.37
2022-12-05T07:01:39.246Z,45.13
2022-12-05T07:04:06.923Z,50.53
2022-12-05T07:06:33.816Z,51.17
2022-12-05T07:09:00.292Z,55.27
2022-12-05T07:11:26.846Z,52.80
2022-12-05T07:13:53.272Z,52.23
2022-12-05T07:16:19.761Z,48.73
2022-12-05T07:18:47.091Z,47.60
2022-12-05T07:21:14.547Z,46.63
2022-12-05T07:23:41.640Z,49.03
2022-12-05T07:26:09.201Z,45.77
2022-12-05T07:28:35.681Z,46.53
2022-12-05T07:31:02.597Z,44.77
2022-12-05T07:33:29.183Z,42.67
2022-12-05T07:35:59.460Z,44.20
2022-12-05T07:38:25.922Z,45.87
2022-12-05T07:40:52.400Z,39.73
2022-12-05T07:43:19.025Z,43.97
2022-12-05T07:45:45.780Z,42.87
2022-12-05T07:48:16.974Z,42.93
2022-12-05T07:50:46.099Z,43.37
2022-12-05T07:53:12.574Z,41.00
2022-12-05T07:55:39.315Z,40.67
2022-12-05T07:58:05.794Z,41.70
2022-12-05T08:00:32.246Z,41.90
2022-12-05T08:02:58.839Z,38.83
2022-12-05T08:05:25.391Z,44.23
2022-12-05T08:07:52.014Z,41.80
2022-12-05T08:10:18.524Z,35.77
2022-12-05T08:12:44.955Z,36.20
2022-12-05T08:15:11.695Z,37.33
2022-12-05T08:17:38.127Z,38.20
2022-12-05T08:20:05.079Z,37.63
2022-12-05T08:22:31.564Z,37.93
2022-12-05T08:24:58.248Z,38.63
2022-12-05T08:27:24.682Z,40.60
2022-12-05T08:29:51.265Z,41.00
2022-12-05T08:32:17.700Z,40.47
2022-12-05T08:34:44.184Z,35.90
2022-12-05T08:37:10.745Z,40.70
2022-12-05T08:39:38.864Z,40.67
2022-12-05T08:42:05.542Z,38.73
2022-12-05T08:44:32.121Z,36.23
2022-12-05T08:46:58.634Z,41.53
2022-12-05T08:49:25.072Z,39.77
2022-12-05T08:51:51.509Z,41.33
2022-12-05T08:54:18.075Z,41.43
2022-12-05T08:56:44.559Z,43.63
2022-12-05T08:59:11.148Z,42.47
2022-12-05T09:01:39.523Z,45.57
2022-12-05T09:04:06.983Z,40.83
2022-12-05T09:06:34.462Z,39.47
2022-12-05T09:09:02.739Z,42.47
2022-12-05T09:11:29.597Z,42.30
2022-12-05T09:13:56.396Z,36.10
2022-12-05T09:16:23.950Z,39.67
2022-12-05T09:18:50.541Z,37.90
2022-12-05T09:21:21.025Z,38.27
2022-12-05T09:23:47.521Z,43.03
2022-12-05T09:26:14.697Z,41.80
2022-12-05T09:28:41.126Z,40.53
2022-12-05T09:31:08.607Z,38.93
2022-12-05T09:33:35.418Z,40.37
2022-12-05T09:36:05.595Z,38.53
2022-12-05T09:38:32.112Z,40.47
2022-12-05T09:41:04.678Z,38.27
2022-12-05T09:43:45.425Z,41.53
2022-12-05T09:46:18.416Z,43.20
2022-12-05T09:48:45.107Z,44.67
2022-12-05T09:51:11.614Z,39.50
2022-12-05T09:53:38.878Z,46.97
2022-12-05T09:56:14.599Z,42.07
2022-12-05T09:58:45.239Z,40.53
2022-12-05T10:01:14.866Z,42.20
2022-12-05T10:03:42.558Z,45.00
2022-12-05T10:06:11.655Z,45.27
2022-12-05T10:08:38.114Z,42.93
2022-12-05T10:11:24.838Z,43.87
2022-12-05T10:14:10.258Z,43.13
2022-12-05T10:16:46.741Z,38.80
2022-12-05T10:19:14.532Z,38.53
2022-12-05T10:21:47.162Z,37.23
2022-12-05T10:24:17.630Z,42.83
2022-12-05T10:26:51.908Z,43.80
2022-12-05T10:29:25.820Z,41.33
2022-12-05T10:31:52.663Z,38.77
2022-12-05T10:34:23.616Z,41.13
2022-12-05T10:36:53.821Z,40.40
2022-12-05T10:39:20.405Z,37.20
2022-12-05T10:41:46.855Z,41.10
2022-12-05T10:44:13.323Z,39.13
2022-12-05T10:46:39.866Z,37.60
2022-12-05T10:49:12.476Z,35.47
2022-12-05T10:51:39.106Z,42.27
2022-12-05T10:54:11.844Z,41.23
2022-12-05T10:56:39.020Z,38.50
2022-12-05T10:59:05.848Z,37.27
2022-12-05T11:01:32.936Z,37.23
2022-12-05T11:04:00.508Z,35.87
2022-12-05T11:06:27.776Z,35.93
2022-12-05T11:09:04.272Z,33.23
2022-12-05T11:11:33.496Z,37.57
2022-12-05T11:14:00.076Z,32.80
2022-12-05T11:16:28.932Z,39.53
2022-12-05T11:18:55.468Z,34.73
2022-12-05T11:21:22.081Z,36.67
2022-12-05T11:23:48.696Z,33.17
2022-12-05T11:26:35.648Z,36.63
2022-12-05T11:29:02.625Z,37.90
2022-12-05T11:31:29.827Z,42.27
2022-12-05T11:34:15.112Z,42.30
2022-12-05T11:36:44.047Z,34.80
2022-12-05T11:39:11.806Z,41.60
2022-12-05T11:41:57.253Z,41.20
2022-12-05T11:44:41.893Z,43.33
2022-12-05T11:47:27.231Z,36.87
2022-12-05T11:50:02.900Z,36.17
2022-12-05T11:52:29.321Z,37.67
2022-12-05T11:55:05.017Z,37.43
2022-12-05T11:57:36.518Z,37.77
2022-12-05T12:00:18.155Z,39.57
2022-12-05T12:03:03.592Z,37.60
2022-12-05T12:05:39.352Z,37.37
2022-12-05T12:08:23.311Z,35.67
2022-12-05T12:11:05.053Z,42.00
2022-12-05T12:13:34.539Z,44.30
2022-12-05T12:16:08.760Z,50.23
2022-12-05T12:18:35.335Z,49.53
2022-12-05T12:21:25.429Z,50.93
2022-12-05T12:23:56.529Z,52.63
2022-12-05T12:26:26.426Z,48.57
2022-12-05T12:28:55.588Z,51.17
2022-12-05T12:31:26.354Z,51.57
2022-12-05T12:33:56.375Z,47.47
2022-12-05T12:36:26.569Z,47.40
2022-12-05T12:39:02.705Z,50.43
2022-12-05T12:41:47.889Z,48.03
2022-12-05T12:44:23.162Z,50.97
2022-12-05T12:47:01.955Z,49.70
2022-12-05T12:49:28.381Z,60.70
2022-12-05T12:51:57.080Z,61.60
2022-12-05T12:54:55.205Z,57.77
2022-12-05T12:57:23.994Z,56.83
2022-12-05T12:59:50.684Z,58.35
2022-12-05T13:02:20.291Z,49.87
2022-12-05T13:04:46.755Z,50.93
2022-12-05T13:07:21.816Z,47.73
2022-12-05T13:09:56.852Z,49.20
2022-12-05T13:12:26.694Z,46.97
2022-12-05T13:15:00.438Z,48.27
2022-12-05T13:17:27.246Z,50.23
2022-12-05T13:19:53.741Z,41.63
2022-12-05T13:22:20.959Z,42.43
2022-12-05T13:24:47.498Z,38.53
2022-12-05T13:27:17.991Z,40.13
2022-12-05T13:29:54.476Z,38.30
2022-12-05T13:32:23.980Z,34.93
2022-12-05T13:34:50.431Z,36.77
2022-12-05T13:37:37.136Z,36.43
2022-12-05T13:40:22.147Z,40.20
2022-12-05T13:42:49.238Z,41.47
2022-12-05T13:45:16.748Z,42.73
2022-12-05T13:47:55.910Z,42.73
2022-12-05T13:50:34.551Z,42.17
2022-12-05T13:53:02.290Z,38.10
2022-12-05T13:55:39.342Z,40.57
2022-12-05T13:58:24.145Z,42.90
2022-12-05T14:00:53.955Z,42.07
2022-12-05T14:03:32.591Z,44.63
2022-12-05T14:05:59.038Z,43.97
2022-12-05T14:08:31.736Z,39.33
2022-12-05T14:10:58.176Z,38.73
2022-12-05T14:13:25.460Z,34.90
2022-12-05T14:15:52.152Z,40.30
2022-12-05T14:18:19.055Z,39.80
2022-12-05T14:20:45.572Z,36.70
2022-12-05T14:23:30.394Z,34.37
2022-12-05T14:26:09.016Z,32.97
2022-12-05T14:28:38.786Z,34.23
2022-12-05T14:31:05.256Z,34.10
2022-12-05T14:33:31.805Z,39.43
2022-12-05T14:35:58.454Z,40.37
2022-12-05T14:38:28.941Z,46.87
2022-12-05T14:41:05.991Z,42.40
2022-12-05T14:43:33.359Z,46.83
2022-12-05T14:46:01.227Z,46.23
2022-12-05T14:48:40.156Z,46.97
2022-12-05T14:51:36.988Z,46.63
2022-12-05T14:54:03.909Z,50.60
2022-12-05T14:56:30.482Z,47.97
2022-12-05T14:59:01.592Z,48.90
2022-12-05T15:01:28.314Z,54.57
2022-12-05T15:03:54.749Z,47.67
2022-12-05T15:06:22.828Z,55.53
2022-12-05T15:08:49.859Z,55.07
2022-12-05T15:11:28.461Z,53.90
2022-12-05T15:14:00.616Z,59.47
2022-12-05T15:16:29.939Z,58.30
2022-12-05T15:19:00.898Z,57.80
2022-12-05T15:21:34.028Z,57.67
2022-12-05T15:24:01.244Z,68.13
2022-12-05T15:26:46.299Z,63.33
2022-12-05T15:29:23.341Z,59.73
2022-12-05T15:31:57.192Z,65.13
2022-12-05T15:34:36.025Z,65.20
2022-12-05T15:37:02.576Z,67.07
2022-12-05T15:39:29.003Z,67.60
2022-12-05T15:41:56.369Z,75.73
2022-12-05T15:44:27.588Z,83.53
2022-12-05T15:46:55.523Z,96.77
2022-12-05T15:49:23.347Z,100.43
2022-12-05T15:51:50.535Z,104.10
2022-12-05T15:54:37.322Z,101.60
2022-12-05T15:57:23.710Z,101.90
2022-12-05T15:59:51.975Z,97.33
2022-12-05T16:02:20.350Z,97.70
2022-12-05T16:04:48.415Z,98.97
2022-12-05T16:07:15.591Z,92.27
2022-12-05T16:09:42.783Z,84.13
2022-12-05T16:12:17.325Z,88.03
2022-12-05T16:15:00.635Z,86.47
2022-12-05T16:17:28.977Z,86.80
2022-12-05T16:20:09.433Z,84.40
2022-12-05T16:22:35.865Z,89.50
2022-12-05T16:25:03.532Z,83.57
2022-12-05T16:27:31.919Z,81.10
2022-12-05T16:30:16.803Z,86.07
2022-12-05T16:32:43.622Z,85.23
2022-12-05T16:35:29.473Z,88.83
2022-12-05T16:38:17.280Z,79.90
2022-12-05T16:40:49.865Z,79.53
2022-12-05T16:43:27.237Z,79.70
2022-12-05T16:45:54.299Z,82.07
2022-12-05T16:48:24.884Z,83.80
2022-12-05T16:50:52.530Z,78.93
2022-12-05T16:53:39.362Z,81.73
2022-12-05T16:56:06.045Z,88.87
2022-12-05T16:58:32.526Z,92.50
2022-12-05T17:00:59.962Z,79.13
2022-12-05T17:03:34.489Z,83.00
2022-12-05T17:06:01.918Z,80.97
2022-12-05T17:08:28.518Z,84.30
2022-12-05T17:10:55.145Z,88.70
2022-12-05T17:13:21.693Z,94.43
2022-12-05T17:15:48.323Z,108.87
2022-12-05T17:18:16.615Z,105.23
2022-12-05T17:20:43.945Z,97.33
2022-12-05T17:23:11.462Z,104.70
2022-12-05T17:25:38.095Z,96.03
2022-12-05T17:28:04.597Z,99.90
2022-12-05T17:30:31.367Z,97.93
2022-12-05T17:32:57.874Z,108.70
2022-12-05T17:35:25.231Z,132.37
2022-12-05T17:37:51.686Z,145.03
2022-12-05T17:40:18.417Z,151.23
2022-12-05T17:42:44.851Z,143.43
2022-12-05T17:45:14.916Z,155.10
2022-12-05T17:47:41.866Z,166.93
2022-12-05T17:50:11.724Z,176.33
2022-12-05T17:52:39.388Z,156.30
2022-12-05T17:55:06.357Z,141.37
2022-12-05T17:57:32.990Z,129.07
2022-12-05T17:59:59.642Z,128.57
2022-12-05T18:02:26.103Z,117.43
2022-12-05T18:04:53.863Z,131.13
2022-12-05T18:07:20.330Z,128.97
2022-12-05T18:09:48.615Z,113.23
2022-12-05T18:12:15.295Z,116.00
2022-12-05T18:14:41.839Z,128.23
2022-12-05T18:17:08.669Z,132.23
2022-12-05T18:19:35.327Z,128.80
2022-12-05T18:22:02.235Z,125.17
2022-12-05T18:24:29.112Z,121.97
2022-12-05T18:26:56.225Z,111.33
2022-12-05T18:29:23.535Z,116.77
2022-12-05T18:31:50.107Z,108.03
2022-12-05T18:34:16.784Z,109.67
2022-12-05T18:36:43.493Z,109.17
2022-12-05T18:39:11.499Z,104.50
2022-12-05T18:41:38.053Z,111.73
2022-12-05T18:44:04.645Z,123.43
2022-12-05T18:46:31.404Z,125.07
2022-12-05T18:49:03.072Z,121.40
2022-12-05T18:51:30.041Z,118.20
2022-12-05T18:53:57.018Z,118.67
2022-12-05T18:56:28.048Z,122.00
2022-12-05T18:58:55.485Z,113.03
2022-12-05T19:01:22.199Z,115.10
2022-12-05T19:03:48.800Z,118.80
2022-12-05T19:06:16.146Z,130.57
2022-12-05T19:08:44.455Z,127.93
2022-12-05T19:11:11.958Z,131.97
2022-12-05T19:13:38.489Z,127.93
2022-12-05T19:16:06.219Z,134.53
2022-12-05T19:18:32.716Z,137.00
2022-12-05T19:20:59.168Z,136.07
2022-12-05T19:23:25.689Z,141.87
2022-12-05T19:25:55.877Z,148.60
2022-12-05T19:28:22.319Z,160.07
2022-12-05T19:30:48.776Z,191.13
2022-12-05T19:33:15.303Z,198.10
2022-12-05T19:35:41.754Z,194.77
2022-12-05T19:38:08.277Z,209.70
2022-12-05T19:40:35.020Z,218.80
2022-12-05T19:43:01.531Z,212.60
2022-12-05T19:45:28.123Z,211.17
2022-12-05T19:47:54.589Z,199.57
2022-12-05T19:50:21.200Z,193.53
2022-12-05T19:52:47.732Z,183.70
2022-12-05T19:55:14.206Z,175.83
2022-12-05T19:57:40.665Z,183.73
2022-12-05T20:00:07.409Z,178.40
2022-12-05T20:02:38.400Z,170.97
2022-12-05T20:05:06.619Z,160.07
2022-12-05T20:07:33.247Z,161.57
2022-12-05T20:10:00.017Z,165.30
2022-12-05T20:12:26.876Z,163.10
2022-12-05T20:14:53.303Z,158.50
2022-12-05T20:17:21.040Z,159.37
2022-12-05T20:19:47.499Z,163.60
2022-12-05T20:22:14.230Z,156.57
2022-12-05T20:24:40.666Z,155.50
2022-12-05T20:27:07.469Z,148.63
2022-12-05T20:29:33.995Z,151.10
2022-12-05T20:32:00.455Z,162.47
2022-12-05T20:34:26.931Z,153.80
2022-12-05T20:36:53.622Z,165.67
2022-12-05T20:39:20.263Z,156.70
2022-12-05T20:41:46.878Z,157.30
2022-12-05T20:44:14.351Z,159.00
2022-12-05T20:46:41.660Z,151.77
2022-12-05T20:49:08.447Z,154.77
2022-12-05T20:51:35.121Z,150.93
2022-12-05T20:54:02.068Z,175.93
2022-12-05T20:56:30.235Z,178.53
2022-12-05T20:58:57.453Z,186.97
2022-12-05T21:01:24.409Z,186.20
2022-12-05T21:03:51.442Z,194.57
2022-12-05T21:06:27.791Z,193.07
2022-12-05T21:08:54.540Z,196.97
2022-12-05T21:11:21.334Z,187.83
2022-12-05T21:13:47.886Z,171.07
2022-12-05T21:16:16.473Z,148.30
2022-12-05T21:18:43.057Z,146.37
2022-12-05T21:21:13.417Z,137.30
2022-12-05T21:23:39.936Z,133.13
2022-12-05T21:26:07.082Z,128.87
2022-12-05T21:28:33.835Z,132.40
2022-12-05T21:31:11.327Z,132.57
2022-12-05T21:33:38.126Z,127.80
2022-12-05T21:36:05.030Z,125.67
2022-12-05T21:38:31.559Z,128.77
2022-12-05T21:40:58.256Z,125.67
2022-12-05T21:43:24.691Z,127.57
2022-12-05T21:45:54.511Z,132.83
2022-12-05T21:48:21.478Z,133.83
2022-12-05T21:50:48.137Z,139.33
2022-12-05T21:53:15.760Z,143.50
2022-12-05T21:55:43.525Z,146.90
2022-12-05T21:58:10.648Z,134.33
2022-12-05T22:00:37.482Z,137.17
2022-12-05T22:03:04.362Z,132.97
2022-12-05T22:05:33.652Z,135.63
2022-12-05T22:08:04.830Z,145.77
2022-12-05T22:10:34.194Z,145.33
2022-12-05T22:13:00.719Z,148.93
2022-12-05T22:15:27.324Z,141.40
2022-12-05T22:17:54.077Z,139.20
2022-12-05T22:20:20.614Z,147.53
2022-12-05T22:22:50.141Z,145.20
2022-12-05T22:25:16.701Z,141.47
2022-12-05T22:27:43.366Z,145.23
2022-12-05T22:30:09.911Z,152.70
2022-12-05T22:32:36.391Z,140.97
2022-12-05T22:35:04.253Z,151.70
2022-12-05T22:37:31.146Z,161.63
2022-12-05T22:39:58.071Z,149.00
2022-12-05T22:42:25.890Z,142.57
2022-12-05T22:44:52.417Z,157.60
2022-12-05T22:47:19.039Z,186.03
2022-12-05T22:49:45.554Z,220.90
2022-12-05T22:52:12.036Z,258.70
2022-12-05T22:54:38.946Z,249.20
2022-12-05T22:57:05.470Z,250.97
2022-12-05T22:59:32.120Z,236.13
2022-12-05T23:01:58.594Z,225.13
2022-12-05T23:04:25.259Z,215.53
2022-12-05T23:06:51.917Z,215.07
2022-12-05T23:09:18.483Z,232.40
2022-12-05T23:11:45.014Z,211.33
2022-12-05T23:14:11.546Z,204.70
2022-12-05T23:16:38.272Z,234.40
2022-12-05T23:19:05.066Z,217.40
2022-12-05T23:21:32.573Z,231.20
2022-12-05T23:24:00.343Z,233.87
2022-12-05T23:26:27.840Z,230.83
2022-12-05T23:28:54.376Z,238.63
2022-12-05T23:31:21.671Z,246.27
2022-12-05T23:33:51.472Z,255.27
2022-12-05T23:36:18.277Z,246.63
2022-12-05T23:38:44.769Z,219.17
2022-12-05T23:41:15.446Z,194.60
2022-12-05T23:43:42.053Z,182.03
2022-12-05T23:46:08.572Z,162.60
2022-12-05T23:48:35.178Z,162.13
2022-12-05T23:51:09.003Z,164.87
2022-12-05T23:53:35.889Z,168.27
2022-12-05T23:56:02.962Z,154.97
2022-12-05T23:58:30.168Z,147.97
